sensor_id;sensor_type;location;lat;lon;timestamp;P1;durP1;ratioP1;P2;durP2;ratioP2
75152;SDS011;63734;45.218;36.708;2023-02-27T00:01:31;16.27;;;6.10;;
75152;SDS011;63734;45.218;36.708;2023-02-27T00:03:58;14.13;;;5.25;;
75152;SDS011;63734;45.218;36.708;2023-02-27T00:06:25;9.52;;;5.60;;
75152;SDS011;63734;45.218;36.708;2023-02-27T00:08:52;12.60;;;5.43;;
75152;SDS011;63734;45.218;36.708;2023-02-27T00:11:18;9.05;;;4.75;;
75152;SDS011;63734;45.218;36.708;2023-02-27T00:13:45;16.90;;;4.72;;
75152;SDS011;63734;45.218;36.708;2023-02-27T00:16:11;9.55;;;4.25;;
75152;SDS011;63734;45.218;36.708;2023-02-27T00:18:37;11.07;;;4.55;;
75152;SDS011;63734;45.218;36.708;2023-02-27T00:21:03;9.75;;;4.40;;
75152;SDS011;63734;45.218;36.708;2023-02-27T00:23:29;14.45;;;4.72;;
75152;SDS011;63734;45.218;36.708;2023-02-27T00:25:55;10.38;;;4.32;;
75152;SDS011;63734;45.218;36.708;2023-02-27T00:28:21;12.95;;;4.70;;
75152;SDS011;63734;45.218;36.708;2023-02-27T00:30:48;13.15;;;4.82;;
75152;SDS011;63734;45.218;36.708;2023-02-27T00:33:14;8.43;;;4.22;;
75152;SDS011;63734;45.218;36.708;2023-02-27T00:35:40;11.25;;;4.50;;
75152;SDS011;63734;45.218;36.708;2023-02-27T00:38:07;9.35;;;4.43;;
75152;SDS011;63734;45.218;36.708;2023-02-27T00:40:33;10.55;;;4.60;;
75152;SDS011;63734;45.218;36.708;2023-02-27T00:43:03;13.52;;;5.38;;
75152;SDS011;63734;45.218;36.708;2023-02-27T00:45:29;10.55;;;4.78;;
75152;SDS011;63734;45.218;36.708;2023-02-27T00:47:55;11.52;;;5.28;;
75152;SDS011;63734;45.218;36.708;2023-02-27T00:50:21;13.73;;;4.75;;
75152;SDS011;63734;45.218;36.708;2023-02-27T00:52:47;8.98;;;4.57;;
75152;SDS011;63734;45.218;36.708;2023-02-27T00:55:13;12.02;;;4.72;;
75152;SDS011;63734;45.218;36.708;2023-02-27T00:57:39;14.18;;;5.50;;
75152;SDS011;63734;45.218;36.708;2023-02-27T01:00:06;11.75;;;4.57;;
75152;SDS011;63734;45.218;36.708;2023-02-27T01:02:33;13.18;;;4.72;;
75152;SDS011;63734;45.218;36.708;2023-02-27T01:04:59;11.23;;;5.15;;
75152;SDS011;63734;45.218;36.708;2023-02-27T01:07:25;9.10;;;4.82;;
75152;SDS011;63734;45.218;36.708;2023-02-27T01:09:52;14.65;;;5.78;;
75152;SDS011;63734;45.218;36.708;2023-02-27T01:12:18;14.07;;;4.93;;
75152;SDS011;63734;45.218;36.708;2023-02-27T01:14:44;10.38;;;5.10;;
75152;SDS011;63734;45.218;36.708;2023-02-27T01:17:10;10.25;;;5.28;;
75152;SDS011;63734;45.218;36.708;2023-02-27T01:19:36;11.80;;;4.68;;
75152;SDS011;63734;45.218;36.708;2023-02-27T01:22:04;16.27;;;5.75;;
75152;SDS011;63734;45.218;36.708;2023-02-27T01:24:31;11.27;;;5.45;;
75152;SDS011;63734;45.218;36.708;2023-02-27T01:26:57;11.88;;;4.38;;
75152;SDS011;63734;45.218;36.708;2023-02-27T01:29:23;14.20;;;6.10;;
75152;SDS011;63734;45.218;36.708;2023-02-27T01:31:49;13.43;;;4.82;;
75152;SDS011;63734;45.218;36.708;2023-02-27T01:34:16;8.02;;;3.83;;
75152;SDS011;63734;45.218;36.708;2023-02-27T01:36:42;12.45;;;5.03;;
75152;SDS011;63734;45.218;36.708;2023-02-27T01:39:08;13.57;;;4.85;;
75152;SDS011;63734;45.218;36.708;2023-02-27T01:41:35;9.90;;;5.05;;
75152;SDS011;63734;45.218;36.708;2023-02-27T01:44:02;10.38;;;4.82;;
75152;SDS011;63734;45.218;36.708;2023-02-27T01:46:35;11.68;;;4.57;;
75152;SDS011;63734;45.218;36.708;2023-02-27T01:49:07;8.63;;;5.03;;
75152;SDS011;63734;45.218;36.708;2023-02-27T01:51:47;10.77;;;5.30;;
75152;SDS011;63734;45.218;36.708;2023-02-27T01:54:17;13.85;;;5.15;;
75152;SDS011;63734;45.218;36.708;2023-02-27T01:56:46;7.40;;;4.38;;
75152;SDS011;63734;45.218;36.708;2023-02-27T01:59:13;11.90;;;5.30;;
75152;SDS011;63734;45.218;36.708;2023-02-27T02:01:40;16.70;;;6.00;;
75152;SDS011;63734;45.218;36.708;2023-02-27T02:06:44;14.20;;;4.03;;
75152;SDS011;63734;45.218;36.708;2023-02-27T02:09:13;10.70;;;5.10;;
75152;SDS011;63734;45.218;36.708;2023-02-27T02:11:41;9.93;;;4.93;;
75152;SDS011;63734;45.218;36.708;2023-02-27T02:14:09;9.10;;;5.22;;
75152;SDS011;63734;45.218;36.708;2023-02-27T02:27:34;12.65;;;4.93;;
75152;SDS011;63734;45.218;36.708;2023-02-27T02:38:49;10.98;;;5.47;;
75152;SDS011;63734;45.218;36.708;2023-02-27T02:44:06;8.75;;;4.75;;
75152;SDS011;63734;45.218;36.708;2023-02-27T02:51:57;10.23;;;4.95;;
75152;SDS011;63734;45.218;36.708;2023-02-27T02:54:44;10.10;;;5.15;;
75152;SDS011;63734;45.218;36.708;2023-02-27T02:57:25;13.95;;;5.93;;
75152;SDS011;63734;45.218;36.708;2023-02-27T03:03:24;8.02;;;4.93;;
75152;SDS011;63734;45.218;36.708;2023-02-27T03:06:23;10.68;;;4.70;;
75152;SDS011;63734;45.218;36.708;2023-02-27T03:09:04;9.43;;;3.95;;
75152;SDS011;63734;45.218;36.708;2023-02-27T03:11:37;14.43;;;5.75;;
75152;SDS011;63734;45.218;36.708;2023-02-27T03:16:43;13.63;;;6.00;;
75152;SDS011;63734;45.218;36.708;2023-02-27T03:24:23;9.38;;;5.15;;
75152;SDS011;63734;45.218;36.708;2023-02-27T03:26:55;9.27;;;4.72;;
75152;SDS011;63734;45.218;36.708;2023-02-27T03:29:30;12.32;;;5.32;;
75152;SDS011;63734;45.218;36.708;2023-02-27T03:32:09;8.68;;;4.60;;
75152;SDS011;63734;45.218;36.708;2023-02-27T03:34:42;9.95;;;5.05;;
75152;SDS011;63734;45.218;36.708;2023-02-27T03:42:41;9.63;;;4.75;;
75152;SDS011;63734;45.218;36.708;2023-02-27T03:46:08;9.30;;;4.53;;
75152;SDS011;63734;45.218;36.708;2023-02-27T03:48:39;13.23;;;4.93;;
75152;SDS011;63734;45.218;36.708;2023-02-27T03:51:13;9.93;;;5.07;;
75152;SDS011;63734;45.218;36.708;2023-02-27T03:53:45;12.88;;;5.18;;
75152;SDS011;63734;45.218;36.708;2023-02-27T03:56:26;10.77;;;4.18;;
75152;SDS011;63734;45.218;36.708;2023-02-27T03:58:57;12.02;;;4.32;;
75152;SDS011;63734;45.218;36.708;2023-02-27T04:01:23;10.65;;;5.60;;
75152;SDS011;63734;45.218;36.708;2023-02-27T04:03:51;6.13;;;3.85;;
75152;SDS011;63734;45.218;36.708;2023-02-27T04:06:47;7.75;;;4.65;;
75152;SDS011;63734;45.218;36.708;2023-02-27T04:15:45;10.45;;;4.78;;
75152;SDS011;63734;45.218;36.708;2023-02-27T04:21:37;13.20;;;6.32;;
75152;SDS011;63734;45.218;36.708;2023-02-27T04:26:53;11.70;;;5.38;;
75152;SDS011;63734;45.218;36.708;2023-02-27T04:35:32;8.75;;;4.45;;
75152;SDS011;63734;45.218;36.708;2023-02-27T04:41:35;15.32;;;7.82;;
75152;SDS011;63734;45.218;36.708;2023-02-27T04:43:36;8.70;;;5.55;;
75152;SDS011;63734;45.218;36.708;2023-02-27T04:46:05;14.13;;;6.47;;
75152;SDS011;63734;45.218;36.708;2023-02-27T04:48:35;12.35;;;6.13;;
75152;SDS011;63734;45.218;36.708;2023-02-27T04:51:09;12.23;;;7.22;;
75152;SDS011;63734;45.218;36.708;2023-02-27T04:53:42;17.40;;;7.85;;
75152;SDS011;63734;45.218;36.708;2023-02-27T04:56:15;13.23;;;7.13;;
75152;SDS011;63734;45.218;36.708;2023-02-27T04:58:49;21.23;;;8.00;;
75152;SDS011;63734;45.218;36.708;2023-02-27T05:01:23;15.23;;;6.43;;
75152;SDS011;63734;45.218;36.708;2023-02-27T05:03:55;13.43;;;6.90;;
75152;SDS011;63734;45.218;36.708;2023-02-27T05:06:24;15.50;;;6.50;;
75152;SDS011;63734;45.218;36.708;2023-02-27T05:12:24;13.15;;;8.00;;
75152;SDS011;63734;45.218;36.708;2023-02-27T05:15:13;16.30;;;7.90;;
75152;SDS011;63734;45.218;36.708;2023-02-27T05:20:33;8.95;;;5.30;;
75152;SDS011;63734;45.218;36.708;2023-02-27T05:26:08;11.85;;;6.22;;
75152;SDS011;63734;45.218;36.708;2023-02-27T05:28:49;11.90;;;5.83;;
75152;SDS011;63734;45.218;36.708;2023-02-27T05:31:27;13.98;;;6.22;;
75152;SDS011;63734;45.218;36.708;2023-02-27T05:34:21;12.50;;;7.45;;
75152;SDS011;63734;45.218;36.708;2023-02-27T05:39:25;10.90;;;6.77;;
75152;SDS011;63734;45.218;36.708;2023-02-27T05:41:58;12.30;;;4.80;;
75152;SDS011;63734;45.218;36.708;2023-02-27T05:44:29;11.05;;;6.05;;
75152;SDS011;63734;45.218;36.708;2023-02-27T05:46:59;12.88;;;5.50;;
75152;SDS011;63734;45.218;36.708;2023-02-27T05:49:29;12.60;;;6.20;;
75152;SDS011;63734;45.218;36.708;2023-02-27T05:52:06;12.40;;;6.75;;
75152;SDS011;63734;45.218;36.708;2023-02-27T05:57:22;12.63;;;6.65;;
75152;SDS011;63734;45.218;36.708;2023-02-27T06:00:19;13.73;;;6.95;;
75152;SDS011;63734;45.218;36.708;2023-02-27T06:02:48;12.95;;;7.28;;
75152;SDS011;63734;45.218;36.708;2023-02-27T06:05:16;8.93;;;5.28;;
75152;SDS011;63734;45.218;36.708;2023-02-27T06:07:43;14.75;;;7.38;;
75152;SDS011;63734;45.218;36.708;2023-02-27T06:10:10;9.38;;;5.07;;
75152;SDS011;63734;45.218;36.708;2023-02-27T06:12:39;9.90;;;5.03;;
75152;SDS011;63734;45.218;36.708;2023-02-27T06:15:05;10.88;;;5.63;;
75152;SDS011;63734;45.218;36.708;2023-02-27T06:17:33;11.15;;;4.90;;
75152;SDS011;63734;45.218;36.708;2023-02-27T06:19:59;8.90;;;5.40;;
75152;SDS011;63734;45.218;36.708;2023-02-27T06:22:25;10.45;;;5.45;;
75152;SDS011;63734;45.218;36.708;2023-02-27T06:24:51;10.88;;;5.72;;
75152;SDS011;63734;45.218;36.708;2023-02-27T06:27:17;10.95;;;5.82;;
75152;SDS011;63734;45.218;36.708;2023-02-27T06:29:43;11.95;;;5.60;;
75152;SDS011;63734;45.218;36.708;2023-02-27T06:32:09;9.05;;;5.75;;
75152;SDS011;63734;45.218;36.708;2023-02-27T06:34:35;8.82;;;5.05;;
75152;SDS011;63734;45.218;36.708;2023-02-27T06:37:01;14.40;;;5.53;;
75152;SDS011;63734;45.218;36.708;2023-02-27T06:39:27;10.35;;;5.60;;
75152;SDS011;63734;45.218;36.708;2023-02-27T06:41:53;12.25;;;5.50;;
75152;SDS011;63734;45.218;36.708;2023-02-27T06:44:20;10.13;;;4.63;;
75152;SDS011;63734;45.218;36.708;2023-02-27T06:46:45;11.82;;;5.88;;
75152;SDS011;63734;45.218;36.708;2023-02-27T06:49:11;11.55;;;5.50;;
75152;SDS011;63734;45.218;36.708;2023-02-27T06:51:37;11.02;;;6.65;;
75152;SDS011;63734;45.218;36.708;2023-02-27T06:57:51;11.63;;;5.72;;
75152;SDS011;63734;45.218;36.708;2023-02-27T07:00:17;11.75;;;5.88;;
75152;SDS011;63734;45.218;36.708;2023-02-27T07:02:44;12.68;;;7.00;;
75152;SDS011;63734;45.218;36.708;2023-02-27T07:05:10;11.27;;;6.00;;
75152;SDS011;63734;45.218;36.708;2023-02-27T07:07:36;10.10;;;5.63;;
75152;SDS011;63734;45.218;36.708;2023-02-27T07:10:03;10.65;;;6.38;;
75152;SDS011;63734;45.218;36.708;2023-02-27T07:12:31;11.38;;;7.18;;
75152;SDS011;63734;45.218;36.708;2023-02-27T07:14:57;10.80;;;6.22;;
75152;SDS011;63734;45.218;36.708;2023-02-27T07:17:23;14.45;;;7.55;;
75152;SDS011;63734;45.218;36.708;2023-02-27T07:19:49;11.65;;;6.82;;
75152;SDS011;63734;45.218;36.708;2023-02-27T07:22:15;6.75;;;3.72;;
75152;SDS011;63734;45.218;36.708;2023-02-27T07:24:41;15.00;;;7.13;;
75152;SDS011;63734;45.218;36.708;2023-02-27T07:27:07;10.77;;;6.82;;
75152;SDS011;63734;45.218;36.708;2023-02-27T07:29:33;12.23;;;6.60;;
75152;SDS011;63734;45.218;36.708;2023-02-27T07:32:00;12.30;;;5.03;;
75152;SDS011;63734;45.218;36.708;2023-02-27T07:34:26;8.52;;;4.93;;
75152;SDS011;63734;45.218;36.708;2023-02-27T07:36:52;13.30;;;6.28;;
75152;SDS011;63734;45.218;36.708;2023-02-27T07:39:18;11.63;;;5.65;;
75152;SDS011;63734;45.218;36.708;2023-02-27T07:41:45;14.02;;;6.95;;
75152;SDS011;63734;45.218;36.708;2023-02-27T07:44:15;13.32;;;6.68;;
75152;SDS011;63734;45.218;36.708;2023-02-27T07:46:42;13.75;;;6.20;;
75152;SDS011;63734;45.218;36.708;2023-02-27T07:49:09;14.15;;;8.30;;
75152;SDS011;63734;45.218;36.708;2023-02-27T07:51:35;11.63;;;6.90;;
75152;SDS011;63734;45.218;36.708;2023-02-27T07:54:01;14.05;;;8.07;;
75152;SDS011;63734;45.218;36.708;2023-02-27T07:56:27;11.07;;;6.30;;
75152;SDS011;63734;45.218;36.708;2023-02-27T07:58:54;18.55;;;10.43;;
75152;SDS011;63734;45.218;36.708;2023-02-27T08:01:21;17.10;;;9.85;;
75152;SDS011;63734;45.218;36.708;2023-02-27T08:03:47;14.50;;;8.65;;
75152;SDS011;63734;45.218;36.708;2023-02-27T08:06:13;10.23;;;5.82;;
75152;SDS011;63734;45.218;36.708;2023-02-27T08:08:39;12.15;;;5.95;;
75152;SDS011;63734;45.218;36.708;2023-02-27T08:11:05;10.20;;;5.72;;
75152;SDS011;63734;45.218;36.708;2023-02-27T08:13:31;14.80;;;6.78;;
75152;SDS011;63734;45.218;36.708;2023-02-27T08:15:57;13.27;;;6.53;;
75152;SDS011;63734;45.218;36.708;2023-02-27T08:18:23;11.18;;;6.10;;
75152;SDS011;63734;45.218;36.708;2023-02-27T08:20:49;12.00;;;5.75;;
75152;SDS011;63734;45.218;36.708;2023-02-27T08:23:15;12.20;;;5.80;;
75152;SDS011;63734;45.218;36.708;2023-02-27T08:25:41;10.80;;;5.10;;
75152;SDS011;63734;45.218;36.708;2023-02-27T08:28:07;16.92;;;7.18;;
75152;SDS011;63734;45.218;36.708;2023-02-27T08:30:33;10.45;;;5.63;;
75152;SDS011;63734;45.218;36.708;2023-02-27T08:32:59;10.70;;;4.47;;
75152;SDS011;63734;45.218;36.708;2023-02-27T08:35:26;16.63;;;7.60;;
75152;SDS011;63734;45.218;36.708;2023-02-27T08:37:52;11.43;;;5.22;;
75152;SDS011;63734;45.218;36.708;2023-02-27T08:40:18;13.05;;;6.60;;
75152;SDS011;63734;45.218;36.708;2023-02-27T08:42:44;13.23;;;7.25;;
75152;SDS011;63734;45.218;36.708;2023-02-27T08:45:10;18.35;;;9.00;;
75152;SDS011;63734;45.218;36.708;2023-02-27T08:47:36;17.17;;;8.30;;
75152;SDS011;63734;45.218;36.708;2023-02-27T08:50:03;15.05;;;8.10;;
75152;SDS011;63734;45.218;36.708;2023-02-27T08:52:30;16.70;;;7.97;;
75152;SDS011;63734;45.218;36.708;2023-02-27T08:54:56;14.90;;;7.68;;
75152;SDS011;63734;45.218;36.708;2023-02-27T08:57:22;11.75;;;5.85;;
75152;SDS011;63734;45.218;36.708;2023-02-27T08:59:48;14.98;;;7.00;;
75152;SDS011;63734;45.218;36.708;2023-02-27T09:02:14;14.75;;;6.20;;
75152;SDS011;63734;45.218;36.708;2023-02-27T09:04:40;14.38;;;6.88;;
75152;SDS011;63734;45.218;36.708;2023-02-27T09:07:07;13.77;;;7.70;;
75152;SDS011;63734;45.218;36.708;2023-02-27T09:09:33;12.27;;;5.30;;
75152;SDS011;63734;45.218;36.708;2023-02-27T09:11:59;15.35;;;6.45;;
75152;SDS011;63734;45.218;36.708;2023-02-27T09:14:25;16.63;;;8.88;;
75152;SDS011;63734;45.218;36.708;2023-02-27T09:16:51;15.63;;;7.65;;
75152;SDS011;63734;45.218;36.708;2023-02-27T09:19:17;14.88;;;8.43;;
75152;SDS011;63734;45.218;36.708;2023-02-27T09:21:43;11.82;;;5.13;;
75152;SDS011;63734;45.218;36.708;2023-02-27T09:24:09;16.10;;;8.93;;
75152;SDS011;63734;45.218;36.708;2023-02-27T09:26:35;13.88;;;6.20;;
75152;SDS011;63734;45.218;36.708;2023-02-27T09:29:01;12.35;;;6.03;;
75152;SDS011;63734;45.218;36.708;2023-02-27T09:31:28;13.35;;;6.93;;
75152;SDS011;63734;45.218;36.708;2023-02-27T09:33:54;16.67;;;6.63;;
75152;SDS011;63734;45.218;36.708;2023-02-27T09:36:22;13.80;;;5.68;;
75152;SDS011;63734;45.218;36.708;2023-02-27T09:38:48;18.00;;;7.28;;
75152;SDS011;63734;45.218;36.708;2023-02-27T09:47:03;17.92;;;9.02;;
75152;SDS011;63734;45.218;36.708;2023-02-27T09:49:32;11.90;;;7.70;;
75152;SDS011;63734;45.218;36.708;2023-02-27T09:52:08;13.18;;;6.82;;
75152;SDS011;63734;45.218;36.708;2023-02-27T09:54:38;14.75;;;7.38;;
75152;SDS011;63734;45.218;36.708;2023-02-27T09:57:04;14.82;;;6.95;;
75152;SDS011;63734;45.218;36.708;2023-02-27T10:13:48;12.82;;;6.40;;
75152;SDS011;63734;45.218;36.708;2023-02-27T10:16:21;14.20;;;6.55;;
75152;SDS011;63734;45.218;36.708;2023-02-27T10:21:34;13.10;;;6.25;;
75152;SDS011;63734;45.218;36.708;2023-02-27T10:26:39;17.40;;;6.97;;
75152;SDS011;63734;45.218;36.708;2023-02-27T10:35:06;17.88;;;8.63;;
75152;SDS011;63734;45.218;36.708;2023-02-27T10:37:33;13.80;;;7.30;;
75152;SDS011;63734;45.218;36.708;2023-02-27T10:40:02;12.43;;;6.70;;
75152;SDS011;63734;45.218;36.708;2023-02-27T10:42:34;16.67;;;8.68;;
75152;SDS011;63734;45.218;36.708;2023-02-27T10:45:03;16.02;;;7.30;;
75152;SDS011;63734;45.218;36.708;2023-02-27T10:47:30;23.77;;;9.55;;
75152;SDS011;63734;45.218;36.708;2023-02-27T10:49:56;12.85;;;7.88;;
75152;SDS011;63734;45.218;36.708;2023-02-27T10:52:24;15.52;;;7.70;;
75152;SDS011;63734;45.218;36.708;2023-02-27T10:54:51;16.40;;;7.88;;
75152;SDS011;63734;45.218;36.708;2023-02-27T10:57:18;18.27;;;9.05;;
75152;SDS011;63734;45.218;36.708;2023-02-27T11:00:04;19.38;;;8.43;;
75152;SDS011;63734;45.218;36.708;2023-02-27T11:02:42;16.25;;;8.18;;
75152;SDS011;63734;45.218;36.708;2023-02-27T11:05:35;20.25;;;9.00;;
75152;SDS011;63734;45.218;36.708;2023-02-27T11:08:12;23.75;;;10.88;;
75152;SDS011;63734;45.218;36.708;2023-02-27T11:13:28;21.25;;;12.55;;
75152;SDS011;63734;45.218;36.708;2023-02-27T11:18:28;17.58;;;10.30;;
75152;SDS011;63734;45.218;36.708;2023-02-27T11:24:42;22.77;;;10.88;;
75152;SDS011;63734;45.218;36.708;2023-02-27T11:26:53;15.77;;;7.78;;
75152;SDS011;63734;45.218;36.708;2023-02-27T11:29:21;15.50;;;7.90;;
75152;SDS011;63734;45.218;36.708;2023-02-27T11:34:26;18.60;;;7.60;;
75152;SDS011;63734;45.218;36.708;2023-02-27T11:37:03;18.15;;;8.77;;
75152;SDS011;63734;45.218;36.708;2023-02-27T11:39:47;19.40;;;9.38;;
75152;SDS011;63734;45.218;36.708;2023-02-27T11:42:17;16.88;;;7.95;;
75152;SDS011;63734;45.218;36.708;2023-02-27T11:44:55;13.85;;;6.68;;
75152;SDS011;63734;45.218;36.708;2023-02-27T11:47:25;18.48;;;8.05;;
75152;SDS011;63734;45.218;36.708;2023-02-27T11:50:17;16.02;;;6.68;;
75152;SDS011;63734;45.218;36.708;2023-02-27T11:53:13;23.30;;;9.43;;
75152;SDS011;63734;45.218;36.708;2023-02-27T11:55:45;14.30;;;7.90;;
75152;SDS011;63734;45.218;36.708;2023-02-27T11:58:14;12.05;;;7.10;;
75152;SDS011;63734;45.218;36.708;2023-02-27T12:06:22;18.80;;;8.55;;
75152;SDS011;63734;45.218;36.708;2023-02-27T12:08:56;17.75;;;10.40;;
75152;SDS011;63734;45.218;36.708;2023-02-27T12:11:35;24.70;;;10.57;;
75152;SDS011;63734;45.218;36.708;2023-02-27T12:14:16;19.05;;;10.43;;
75152;SDS011;63734;45.218;36.708;2023-02-27T12:19:21;17.48;;;8.90;;
75152;SDS011;63734;45.218;36.708;2023-02-27T12:21:55;18.58;;;9.50;;
75152;SDS011;63734;45.218;36.708;2023-02-27T12:24:30;19.90;;;8.60;;
75152;SDS011;63734;45.218;36.708;2023-02-27T12:27:07;18.73;;;9.15;;
75152;SDS011;63734;45.218;36.708;2023-02-27T12:29:48;22.13;;;9.30;;
75152;SDS011;63734;45.218;36.708;2023-02-27T12:37:27;20.40;;;9.70;;
75152;SDS011;63734;45.218;36.708;2023-02-27T12:39:56;14.65;;;8.40;;
75152;SDS011;63734;45.218;36.708;2023-02-27T12:51:19;17.17;;;9.18;;
75152;SDS011;63734;45.218;36.708;2023-02-27T12:53:30;15.07;;;7.63;;
75152;SDS011;63734;45.218;36.708;2023-02-27T12:56:18;14.13;;;7.13;;
75152;SDS011;63734;45.218;36.708;2023-02-27T12:58:58;17.70;;;8.57;;
75152;SDS011;63734;45.218;36.708;2023-02-27T13:01:44;22.33;;;9.70;;
75152;SDS011;63734;45.218;36.708;2023-02-27T13:04:26;25.40;;;12.70;;
75152;SDS011;63734;45.218;36.708;2023-02-27T13:07:27;20.20;;;11.68;;
75152;SDS011;63734;45.218;36.708;2023-02-27T13:10:09;14.68;;;7.25;;
75152;SDS011;63734;45.218;36.708;2023-02-27T13:12:57;16.90;;;8.90;;
75152;SDS011;63734;45.218;36.708;2023-02-27T13:15:38;20.95;;;7.47;;
75152;SDS011;63734;45.218;36.708;2023-02-27T13:18:34;17.65;;;8.05;;
75152;SDS011;63734;45.218;36.708;2023-02-27T13:28:45;16.73;;;8.35;;
75152;SDS011;63734;45.218;36.708;2023-02-27T13:31:19;18.10;;;7.72;;
75152;SDS011;63734;45.218;36.708;2023-02-27T13:36:37;17.65;;;8.50;;
75152;SDS011;63734;45.218;36.708;2023-02-27T13:42:03;13.27;;;6.43;;
75152;SDS011;63734;45.218;36.708;2023-02-27T13:44:50;15.52;;;8.10;;
75152;SDS011;63734;45.218;36.708;2023-02-27T13:50:04;15.40;;;8.05;;
75152;SDS011;63734;45.218;36.708;2023-02-27T13:52:47;18.88;;;7.72;;
75152;SDS011;63734;45.218;36.708;2023-02-27T13:55:27;18.25;;;9.07;;
75152;SDS011;63734;45.218;36.708;2023-02-27T13:57:56;16.45;;;8.27;;
75152;SDS011;63734;45.218;36.708;2023-02-27T14:00:28;19.25;;;7.72;;
75152;SDS011;63734;45.218;36.708;2023-02-27T14:03:18;18.45;;;7.40;;
75152;SDS011;63734;45.218;36.708;2023-02-27T14:05:45;16.45;;;8.15;;
75152;SDS011;63734;45.218;36.708;2023-02-27T14:08:20;19.75;;;7.65;;
75152;SDS011;63734;45.218;36.708;2023-02-27T14:10:55;18.38;;;8.40;;
75152;SDS011;63734;45.218;36.708;2023-02-27T14:21:50;15.38;;;7.00;;
75152;SDS011;63734;45.218;36.708;2023-02-27T14:24:32;17.80;;;9.02;;
75152;SDS011;63734;45.218;36.708;2023-02-27T14:27:04;20.27;;;8.57;;
75152;SDS011;63734;45.218;36.708;2023-02-27T14:29:44;15.90;;;7.40;;
75152;SDS011;63734;45.218;36.708;2023-02-27T14:32:16;18.98;;;6.82;;
75152;SDS011;63734;45.218;36.708;2023-02-27T14:34:45;14.82;;;7.05;;
75152;SDS011;63734;45.218;36.708;2023-02-27T14:37:12;19.95;;;9.65;;
75152;SDS011;63734;45.218;36.708;2023-02-27T14:39:41;17.50;;;9.65;;
75152;SDS011;63734;45.218;36.708;2023-02-27T14:44:58;18.98;;;7.75;;
75152;SDS011;63734;45.218;36.708;2023-02-27T14:47:30;17.40;;;8.35;;
75152;SDS011;63734;45.218;36.708;2023-02-27T14:50:02;25.25;;;9.68;;
75152;SDS011;63734;45.218;36.708;2023-02-27T14:52:31;19.58;;;8.50;;
75152;SDS011;63734;45.218;36.708;2023-02-27T14:55:15;21.10;;;8.80;;
75152;SDS011;63734;45.218;36.708;2023-02-27T15:02:58;22.60;;;7.82;;
75152;SDS011;63734;45.218;36.708;2023-02-27T15:05:29;17.80;;;8.18;;
75152;SDS011;63734;45.218;36.708;2023-02-27T15:07:56;18.75;;;7.85;;
75152;SDS011;63734;45.218;36.708;2023-02-27T15:10:25;25.88;;;10.57;;
75152;SDS011;63734;45.218;36.708;2023-02-27T15:12:59;22.90;;;10.75;;
75152;SDS011;63734;45.218;36.708;2023-02-27T15:15:26;19.73;;;8.48;;
75152;SDS011;63734;45.218;36.708;2023-02-27T15:17:53;18.45;;;8.93;;
75152;SDS011;63734;45.218;36.708;2023-02-27T15:22:57;13.05;;;7.63;;
75152;SDS011;63734;45.218;36.708;2023-02-27T15:25:25;23.48;;;8.77;;
75152;SDS011;63734;45.218;36.708;2023-02-27T15:28:01;26.90;;;11.32;;
75152;SDS011;63734;45.218;36.708;2023-02-27T15:30:32;24.63;;;11.30;;
75152;SDS011;63734;45.218;36.708;2023-02-27T15:32:59;21.13;;;9.43;;
75152;SDS011;63734;45.218;36.708;2023-02-27T15:35:29;29.48;;;10.23;;
75152;SDS011;63734;45.218;36.708;2023-02-27T15:38:00;24.23;;;8.35;;
75152;SDS011;63734;45.218;36.708;2023-02-27T15:40:28;22.80;;;11.20;;
75152;SDS011;63734;45.218;36.708;2023-02-27T15:42:57;23.10;;;8.63;;
75152;SDS011;63734;45.218;36.708;2023-02-27T15:45:30;18.75;;;9.57;;
75152;SDS011;63734;45.218;36.708;2023-02-27T15:47:58;23.65;;;9.85;;
75152;SDS011;63734;45.218;36.708;2023-02-27T15:50:30;22.98;;;10.25;;
75152;SDS011;63734;45.218;36.708;2023-02-27T15:53:08;23.35;;;10.13;;
75152;SDS011;63734;45.218;36.708;2023-02-27T15:55:38;18.85;;;8.68;;
75152;SDS011;63734;45.218;36.708;2023-02-27T15:58:16;31.73;;;10.13;;
75152;SDS011;63734;45.218;36.708;2023-02-27T16:00:43;16.35;;;8.60;;
75152;SDS011;63734;45.218;36.708;2023-02-27T16:03:10;20.65;;;10.27;;
75152;SDS011;63734;45.218;36.708;2023-02-27T16:05:48;24.63;;;9.50;;
75152;SDS011;63734;45.218;36.708;2023-02-27T16:08:17;22.27;;;8.95;;
75152;SDS011;63734;45.218;36.708;2023-02-27T16:10:44;23.25;;;10.65;;
75152;SDS011;63734;45.218;36.708;2023-02-27T16:16:00;22.33;;;9.02;;
75152;SDS011;63734;45.218;36.708;2023-02-27T16:21:10;32.25;;;11.93;;
75152;SDS011;63734;45.218;36.708;2023-02-27T16:23:38;20.30;;;7.57;;
75152;SDS011;63734;45.218;36.708;2023-02-27T16:26:14;18.90;;;10.05;;
75152;SDS011;63734;45.218;36.708;2023-02-27T16:28:50;25.25;;;10.40;;
75152;SDS011;63734;45.218;36.708;2023-02-27T16:34:13;25.33;;;12.55;;
75152;SDS011;63734;45.218;36.708;2023-02-27T16:36:54;29.38;;;14.25;;
75152;SDS011;63734;45.218;36.708;2023-02-27T16:39:23;23.48;;;10.07;;
75152;SDS011;63734;45.218;36.708;2023-02-27T16:41:51;18.50;;;9.57;;
75152;SDS011;63734;45.218;36.708;2023-02-27T16:44:22;25.20;;;12.07;;
75152;SDS011;63734;45.218;36.708;2023-02-27T16:46:49;21.13;;;9.77;;
75152;SDS011;63734;45.218;36.708;2023-02-27T16:51:46;19.85;;;10.07;;
75152;SDS011;63734;45.218;36.708;2023-02-27T16:54:13;20.15;;;8.25;;
75152;SDS011;63734;45.218;36.708;2023-02-27T16:56:41;19.77;;;9.25;;
75152;SDS011;63734;45.218;36.708;2023-02-27T16:59:14;21.13;;;8.90;;
75152;SDS011;63734;45.218;36.708;2023-02-27T17:01:55;24.10;;;9.88;;
75152;SDS011;63734;45.218;36.708;2023-02-27T17:04:23;22.73;;;9.98;;
75152;SDS011;63734;45.218;36.708;2023-02-27T17:06:50;30.13;;;13.02;;
75152;SDS011;63734;45.218;36.708;2023-02-27T17:09:18;20.48;;;11.02;;
75152;SDS011;63734;45.218;36.708;2023-02-27T17:11:45;17.60;;;8.30;;
75152;SDS011;63734;45.218;36.708;2023-02-27T17:14:11;21.80;;;9.10;;
75152;SDS011;63734;45.218;36.708;2023-02-27T17:16:38;23.65;;;10.57;;
75152;SDS011;63734;45.218;36.708;2023-02-27T17:19:04;22.20;;;10.70;;
75152;SDS011;63734;45.218;36.708;2023-02-27T17:21:31;20.92;;;8.30;;
75152;SDS011;63734;45.218;36.708;2023-02-27T17:23:59;17.40;;;7.85;;
75152;SDS011;63734;45.218;36.708;2023-02-27T17:26:26;18.83;;;8.63;;
75152;SDS011;63734;45.218;36.708;2023-02-27T17:28:53;25.90;;;11.07;;
75152;SDS011;63734;45.218;36.708;2023-02-27T17:31:20;15.38;;;8.23;;
75152;SDS011;63734;45.218;36.708;2023-02-27T17:33:48;19.63;;;9.23;;
75152;SDS011;63734;45.218;36.708;2023-02-27T17:36:15;20.33;;;10.20;;
75152;SDS011;63734;45.218;36.708;2023-02-27T17:38:42;16.98;;;7.53;;
75152;SDS011;63734;45.218;36.708;2023-02-27T17:41:09;29.35;;;11.38;;
75152;SDS011;63734;45.218;36.708;2023-02-27T17:43:36;19.25;;;9.98;;
75152;SDS011;63734;45.218;36.708;2023-02-27T17:46:04;23.63;;;9.00;;
75152;SDS011;63734;45.218;36.708;2023-02-27T17:48:31;19.60;;;11.00;;
75152;SDS011;63734;45.218;36.708;2023-02-27T17:51:07;28.98;;;12.85;;
75152;SDS011;63734;45.218;36.708;2023-02-27T17:53:36;22.92;;;10.00;;
75152;SDS011;63734;45.218;36.708;2023-02-27T17:56:03;25.85;;;13.27;;
75152;SDS011;63734;45.218;36.708;2023-02-27T17:58:30;24.75;;;11.25;;